createdAt,value
2023-04-17T00:01:24.186Z,16.42
2023-04-17T00:03:52.761Z,18.00
2023-04-17T00:06:20.128Z,17.75
2023-04-17T00:08:47.120Z,16.60
2023-04-17T00:11:14.120Z,17.42
2023-04-17T00:13:41.166Z,16.55
2023-04-17T00:16:10.807Z,17.30
2023-04-17T00:21:04.749Z,15.38
2023-04-17T00:23:32.194Z,16.60
2023-04-17T00:25:59.097Z,17.10
2023-04-17T00:28:26.046Z,15.75
2023-04-17T00:30:53.165Z,17.08
2023-04-17T00:33:20.415Z,17.02
2023-04-17T00:35:48.101Z,16.48
2023-04-17T00:38:15.867Z,17.65
2023-04-17T00:40:44.097Z,16.70
2023-04-17T00:43:11.312Z,17.73
2023-04-17T00:45:38.288Z,16.45
2023-04-17T00:48:07.693Z,16.23
2023-04-17T00:50:35.929Z,16.45
2023-04-17T00:53:03.625Z,17.23
2023-04-17T00:55:32.246Z,16.45
2023-04-17T00:58:00.110Z,15.65
2023-04-17T01:00:27.221Z,15.52
2023-04-17T01:02:58.069Z,16.40
2023-04-17T01:05:26.252Z,15.80
2023-04-17T01:07:54.604Z,16.08
2023-04-17T01:10:21.968Z,15.38
2023-04-17T01:13:01.904Z,17.42
2023-04-17T01:15:29.065Z,15.90
2023-04-17T01:17:56.303Z,17.05
2023-04-17T01:20:23.447Z,16.90
2023-04-17T01:22:51.395Z,18.10
2023-04-17T01:25:19.577Z,16.58
2023-04-17T01:27:48.921Z,16.85
2023-04-17T01:30:16.199Z,16.70
2023-04-17T01:32:55.745Z,17.67
2023-04-17T01:35:23.416Z,19.30
2023-04-17T01:37:50.453Z,17.83
2023-04-17T01:40:17.500Z,17.08
2023-04-17T01:42:45.497Z,18.85
2023-04-17T01:45:12.478Z,18.10
2023-04-17T01:47:40.746Z,18.98
2023-04-17T01:50:09.336Z,16.98
2023-04-17T01:52:37.129Z,19.08
2023-04-17T01:55:04.503Z,18.00
2023-04-17T01:57:32.851Z,17.75
2023-04-17T01:59:59.848Z,18.88
2023-04-17T02:02:26.994Z,17.20
2023-04-17T02:04:54.688Z,19.40
2023-04-17T02:07:21.835Z,18.85
2023-04-17T02:09:48.949Z,18.05
2023-04-17T02:12:16.414Z,19.33
2023-04-17T02:14:43.441Z,18.48
2023-04-17T02:17:10.786Z,20.15
2023-04-17T02:19:37.805Z,18.98
2023-04-17T02:22:23.320Z,18.58
2023-04-17T02:24:51.754Z,17.65
2023-04-17T02:27:19.964Z,18.33
2023-04-17T02:29:46.955Z,19.35
2023-04-17T02:32:16.759Z,18.85
2023-04-17T02:34:44.018Z,18.27
2023-04-17T02:37:11.763Z,19.85
2023-04-17T02:39:38.796Z,19.73
2023-04-17T02:42:05.917Z,20.45
2023-04-17T02:44:32.942Z,18.33
2023-04-17T02:46:59.997Z,18.98
2023-04-17T02:49:30.550Z,19.58
2023-04-17T02:51:58.766Z,17.90
2023-04-17T02:54:25.808Z,18.27
2023-04-17T02:56:53.188Z,18.25
2023-04-17T02:59:20.187Z,19.60
2023-04-17T03:01:47.223Z,18.80
2023-04-17T03:04:17.128Z,18.75
2023-04-17T03:06:44.192Z,16.92
2023-04-17T03:09:12.567Z,18.83
2023-04-17T03:11:39.919Z,18.77
2023-04-17T03:14:06.894Z,18.55
2023-04-17T03:16:33.871Z,18.38
2023-04-17T03:19:03.437Z,20.15
2023-04-17T03:21:31.513Z,18.92
2023-04-17T03:23:59.354Z,18.77
2023-04-17T03:26:26.627Z,19.60
2023-04-17T03:28:53.670Z,18.73
2023-04-17T03:31:24.471Z,19.20
2023-04-17T03:33:51.926Z,19.17
2023-04-17T03:36:19.082Z,17.40
2023-04-17T03:38:46.430Z,19.08
2023-04-17T03:41:16.279Z,17.70
2023-04-17T03:43:43.372Z,18.63
2023-04-17T03:46:10.594Z,19.13
2023-04-17T03:48:38.654Z,17.80
2023-04-17T03:51:06.572Z,19.00
2023-04-17T03:53:34.829Z,18.00
2023-04-17T03:56:04.051Z,18.42
2023-04-17T03:58:36.104Z,18.08
2023-04-17T04:01:04.256Z,19.35
2023-04-17T04:03:35.966Z,18.67
2023-04-17T04:06:03.746Z,18.85
2023-04-17T04:08:30.840Z,19.25
2023-04-17T04:10:57.804Z,20.63
2023-04-17T04:13:34.554Z,20.27
2023-04-17T04:16:13.669Z,20.50
2023-04-17T04:18:41.519Z,23.58
2023-04-17T04:21:08.688Z,28.20
2023-04-17T04:23:41.248Z,22.45
2023-04-17T04:26:09.682Z,25.65
2023-04-17T04:28:44.198Z,26.45
2023-04-17T04:31:30.636Z,26.50
2023-04-17T04:33:59.901Z,22.13
2023-04-17T04:36:30.245Z,20.85
2023-04-17T04:40:15.176Z,21.95
2023-04-17T04:42:43.121Z,21.70
2023-04-17T04:45:16.408Z,21.25
2023-04-17T04:47:44.938Z,20.30
2023-04-17T04:50:12.850Z,20.17
2023-04-17T04:52:39.898Z,19.95
2023-04-17T04:55:37.732Z,17.98
2023-04-17T04:58:05.237Z,19.05
2023-04-17T05:00:33.951Z,13.73
2023-04-17T05:03:01.555Z,18.23
2023-04-17T05:05:29.578Z,20.67
2023-04-17T05:07:56.674Z,20.55
2023-04-17T05:10:28.055Z,18.70
2023-04-17T05:12:59.834Z,17.27
2023-04-17T05:15:27.419Z,22.58
2023-04-17T05:17:54.791Z,22.02
2023-04-17T05:20:22.773Z,17.45
2023-04-17T05:22:54.492Z,17.10
2023-04-17T05:25:23.500Z,16.63
2023-04-17T05:27:51.398Z,17.50
2023-04-17T05:30:18.730Z,17.10
2023-04-17T05:32:51.989Z,16.63
2023-04-17T05:35:38.463Z,15.02
2023-04-17T05:38:08.176Z,15.82
2023-04-17T05:40:35.677Z,15.95
2023-04-17T05:43:08.364Z,18.55
2023-04-17T05:45:36.461Z,18.70
2023-04-17T05:48:03.792Z,19.15
2023-04-17T05:50:30.831Z,17.30
2023-04-17T05:52:57.935Z,18.27
2023-04-17T05:55:31.516Z,16.45
2023-04-17T05:58:05.640Z,15.98
2023-04-17T06:00:38.195Z,16.80
2023-04-17T06:03:08.488Z,17.08
2023-04-17T06:05:38.903Z,17.20
2023-04-17T06:08:07.158Z,17.67
2023-04-17T06:10:34.165Z,17.77
2023-04-17T06:13:01.588Z,16.95
2023-04-17T06:15:29.456Z,17.38
2023-04-17T06:17:56.567Z,17.27
2023-04-17T06:20:23.746Z,17.23
2023-04-17T06:22:50.954Z,16.90
2023-04-17T06:25:18.348Z,19.13
2023-04-17T06:27:45.905Z,16.55
2023-04-17T06:30:13.483Z,18.25
2023-04-17T06:32:49.162Z,18.45
2023-04-17T06:35:16.684Z,18.00
2023-04-17T06:37:48.527Z,18.80
2023-04-17T06:40:15.539Z,19.45
2023-04-17T06:42:42.642Z,18.30
2023-04-17T06:45:13.706Z,19.38
2023-04-17T06:47:42.514Z,19.85
2023-04-17T06:50:09.997Z,21.87
2023-04-17T06:52:37.017Z,19.75
2023-04-17T06:55:04.447Z,21.27
2023-04-17T06:57:31.379Z,22.55
2023-04-17T06:59:58.302Z,20.27
2023-04-17T07:02:25.450Z,20.75
2023-04-17T07:04:54.974Z,20.10
2023-04-17T07:07:22.109Z,17.73
2023-04-17T07:09:49.116Z,18.65
2023-04-17T07:12:16.041Z,19.60
2023-04-17T07:14:43.003Z,17.23
2023-04-17T07:17:10.107Z,16.65
2023-04-17T07:19:38.173Z,18.50
2023-04-17T07:22:05.886Z,18.77
2023-04-17T07:24:35.138Z,17.38
2023-04-17T07:27:03.493Z,17.88
2023-04-17T07:29:30.812Z,18.65
2023-04-17T07:31:57.972Z,13.43
2023-04-17T07:34:51.501Z,15.20
2023-04-17T07:37:18.578Z,12.73
2023-04-17T07:39:48.187Z,14.07
2023-04-17T07:42:16.548Z,15.93
2023-04-17T07:44:43.598Z,14.18
2023-04-17T07:47:10.697Z,14.55
2023-04-17T07:49:39.696Z,14.15
2023-04-17T07:52:06.634Z,14.68
2023-04-17T07:54:33.610Z,14.20
2023-04-17T07:57:03.009Z,15.00
2023-04-17T07:59:30.866Z,13.73
2023-04-17T08:01:57.968Z,14.27
2023-04-17T08:04:26.216Z,14.38
2023-04-17T08:06:53.488Z,15.40
2023-04-17T08:09:22.301Z,17.13
2023-04-17T08:11:56.805Z,17.88
2023-04-17T08:14:25.262Z,16.05
2023-04-17T08:16:52.463Z,15.73
2023-04-17T08:19:19.453Z,16.50
2023-04-17T08:21:50.771Z,16.58
2023-04-17T08:24:19.781Z,16.83
2023-04-17T08:26:47.426Z,15.65
2023-04-17T08:29:14.667Z,15.05
2023-04-17T08:31:42.029Z,15.40
2023-04-17T08:34:14.503Z,16.25
2023-04-17T08:36:43.130Z,14.13
2023-04-17T08:39:12.593Z,15.00
2023-04-17T08:41:54.122Z,14.55
2023-04-17T08:44:24.223Z,16.13
2023-04-17T08:46:51.880Z,16.52
2023-04-17T08:49:19.050Z,16.55
2023-04-17T08:51:47.215Z,13.43
2023-04-17T08:54:14.224Z,13.57
2023-04-17T08:56:41.163Z,12.52
2023-04-17T08:59:08.132Z,13.40
2023-04-17T09:01:35.926Z,12.80
2023-04-17T09:04:03.252Z,11.75
2023-04-17T09:06:50.088Z,12.15
2023-04-17T09:09:21.750Z,11.60
2023-04-17T09:12:09.846Z,11.80
2023-04-17T09:14:36.993Z,11.98
2023-04-17T09:17:03.949Z,12.38
2023-04-17T09:19:32.843Z,11.20
2023-04-17T09:22:22.255Z,11.73
2023-04-17T09:24:49.602Z,10.13
2023-04-17T09:27:28.376Z,9.82
2023-04-17T09:29:59.618Z,10.23
2023-04-17T09:32:27.633Z,10.10
2023-04-17T09:34:57.051Z,9.55
2023-04-17T09:37:24.392Z,10.32
2023-04-17T09:40:02.511Z,10.27
2023-04-17T09:42:29.546Z,10.65
2023-04-17T09:44:57.963Z,10.27
2023-04-17T09:47:25.146Z,10.60
2023-04-17T09:49:53.114Z,9.52
2023-04-17T09:52:23.587Z,9.63
2023-04-17T09:54:51.419Z,9.35
2023-04-17T09:57:18.783Z,9.98
2023-04-17T09:59:49.457Z,9.18
2023-04-17T10:02:18.358Z,8.93
2023-04-17T10:04:46.785Z,9.77
2023-04-17T10:07:14.129Z,9.50
2023-04-17T10:09:42.213Z,10.43
2023-04-17T10:12:17.872Z,9.90
2023-04-17T10:14:48.502Z,8.73
2023-04-17T10:17:28.661Z,13.13
2023-04-17T10:19:56.045Z,10.40
2023-04-17T10:22:24.398Z,12.60
2023-04-17T10:25:10.874Z,11.30
2023-04-17T10:27:37.848Z,9.98
2023-04-17T10:30:12.701Z,9.95
2023-04-17T10:32:42.125Z,10.35
2023-04-17T10:35:18.448Z,8.20
2023-04-17T10:37:51.224Z,9.30
2023-04-17T10:40:27.241Z,8.95
2023-04-17T10:43:13.252Z,8.80
2023-04-17T10:46:04.587Z,8.50
2023-04-17T10:48:49.748Z,8.48
2023-04-17T10:51:27.248Z,8.88
2023-04-17T10:53:56.987Z,8.88
2023-04-17T10:59:03.963Z,8.93
2023-04-17T11:01:31.935Z,9.75
2023-04-17T11:03:59.860Z,9.82
2023-04-17T11:06:28.908Z,8.52
2023-04-17T11:08:57.607Z,9.00
2023-04-17T11:11:40.066Z,8.45
2023-04-17T11:14:15.251Z,8.85
2023-04-17T11:16:44.308Z,8.70
2023-04-17T11:19:13.585Z,8.38
2023-04-17T11:21:43.536Z,8.05
2023-04-17T11:26:47.731Z,7.80
2023-04-17T11:29:18.791Z,8.10
2023-04-17T11:31:47.019Z,7.55
2023-04-17T11:34:15.689Z,8.45
2023-04-17T11:37:00.057Z,7.60
2023-04-17T11:39:31.263Z,7.70
2023-04-17T11:41:58.506Z,7.85
2023-04-17T11:44:26.017Z,8.20
2023-04-17T11:46:58.860Z,7.72
2023-04-17T11:49:39.139Z,7.97
2023-04-17T11:52:06.267Z,8.85
2023-04-17T11:54:37.308Z,8.50
2023-04-17T11:57:07.321Z,9.13
2023-04-17T11:59:38.751Z,8.50
2023-04-17T12:02:07.679Z,8.20
2023-04-17T12:04:36.940Z,8.60
2023-04-17T12:07:05.911Z,7.78
2023-04-17T12:09:34.202Z,7.85
2023-04-17T12:12:03.995Z,7.78
2023-04-17T12:14:31.522Z,7.85
2023-04-17T12:16:58.849Z,8.15
2023-04-17T12:19:28.110Z,8.52
2023-04-17T12:21:55.792Z,9.35
2023-04-17T12:24:25.188Z,9.35
2023-04-17T12:26:53.253Z,9.52
2023-04-17T12:29:29.396Z,9.73
2023-04-17T12:32:07.947Z,8.85
2023-04-17T12:34:35.097Z,8.02
2023-04-17T12:37:02.076Z,8.88
2023-04-17T12:39:29.107Z,9.90
2023-04-17T12:41:56.383Z,10.30
2023-04-17T12:44:23.425Z,11.02
2023-04-17T12:46:50.386Z,7.82
2023-04-17T12:49:17.376Z,9.75
2023-04-17T12:51:44.573Z,5.88
2023-04-17T12:54:11.743Z,9.00
2023-04-17T12:56:38.920Z,9.55
2023-04-17T12:59:05.857Z,9.10
2023-04-17T13:01:32.917Z,10.00
2023-04-17T13:04:00.248Z,9.05
2023-04-17T13:06:28.262Z,9.60
2023-04-17T13:08:55.408Z,9.20
2023-04-17T13:11:22.694Z,9.60
2023-04-17T13:13:49.675Z,8.73
2023-04-17T13:16:16.635Z,7.90
2023-04-17T13:18:43.612Z,8.82
2023-04-17T13:21:10.592Z,8.98
2023-04-17T13:23:37.583Z,9.70
2023-04-17T13:26:04.670Z,9.32
2023-04-17T13:28:31.631Z,8.25
2023-04-17T13:30:58.570Z,9.50
2023-04-17T13:33:25.702Z,8.50
2023-04-17T13:35:53.980Z,8.50
2023-04-17T13:38:21.002Z,8.60
2023-04-17T13:40:47.952Z,8.27
2023-04-17T13:43:14.984Z,8.27
2023-04-17T13:45:42.446Z,8.40
2023-04-17T13:48:09.441Z,7.60
2023-04-17T13:50:36.517Z,7.60
2023-04-17T13:53:03.578Z,7.68
2023-04-17T13:55:30.530Z,7.30
2023-04-17T13:57:57.842Z,7.07
2023-04-17T14:00:25.321Z,7.13
2023-04-17T14:02:52.671Z,6.60
2023-04-17T14:05:27.137Z,6.38
2023-04-17T14:07:54.247Z,6.30
2023-04-17T14:10:21.166Z,5.75
2023-04-17T14:12:48.178Z,5.50
2023-04-17T14:15:15.546Z,5.80
2023-04-17T14:17:43.446Z,5.70
2023-04-17T14:20:11.308Z,5.75
2023-04-17T14:22:38.689Z,6.18
2023-04-17T14:25:06.207Z,5.05
2023-04-17T14:27:35.843Z,6.60
2023-04-17T14:30:03.000Z,5.35
2023-04-17T14:32:30.169Z,5.00
2023-04-17T14:34:57.109Z,4.93
2023-04-17T14:37:24.129Z,4.95
2023-04-17T14:39:51.094Z,5.38
2023-04-17T14:42:18.342Z,5.15
2023-04-17T14:44:45.656Z,5.68
2023-04-17T14:47:13.151Z,5.28
2023-04-17T14:49:40.234Z,5.18
2023-04-17T14:52:07.245Z,5.53
2023-04-17T14:54:35.562Z,5.43
2023-04-17T14:57:02.525Z,4.90
2023-04-17T14:59:29.643Z,4.82
2023-04-17T15:01:56.736Z,4.82
2023-04-17T15:04:24.013Z,4.85
2023-04-17T15:06:51.221Z,4.75
2023-04-17T15:09:18.359Z,4.85
2023-04-17T15:11:46.979Z,4.60
2023-04-17T15:14:14.039Z,4.50
2023-04-17T15:17:46.211Z,4.10
2023-04-17T15:20:13.543Z,4.40
2023-04-17T15:22:40.491Z,4.25
2023-04-17T15:25:07.915Z,4.22
2023-04-17T15:27:35.058Z,3.90
2023-04-17T15:30:04.980Z,4.47
2023-04-17T15:32:32.369Z,4.45
2023-04-17T15:34:59.530Z,3.67
2023-04-17T15:37:26.572Z,4.10
2023-04-17T15:39:53.754Z,4.40
2023-04-17T15:42:22.701Z,4.63
2023-04-17T15:44:49.917Z,3.80
2023-04-17T15:47:17.087Z,3.80
2023-04-17T15:49:46.254Z,4.15
2023-04-17T15:52:13.937Z,4.20
2023-04-17T15:54:41.103Z,3.20
2023-04-17T15:57:08.140Z,3.53
2023-04-17T15:59:35.299Z,4.03
2023-04-17T16:02:02.479Z,3.53
2023-04-17T16:04:29.916Z,4.10
2023-04-17T16:06:57.131Z,3.70
2023-04-17T16:09:24.418Z,3.92
2023-04-17T16:11:51.526Z,3.85
2023-04-17T16:14:28.756Z,4.00
2023-04-17T16:16:55.714Z,3.38
2023-04-17T16:19:22.684Z,3.95
2023-04-17T16:21:49.625Z,5.25
2023-04-17T16:24:16.644Z,5.95
2023-04-17T16:26:44.100Z,9.77
2023-04-17T16:29:11.367Z,4.88
2023-04-17T16:31:38.755Z,3.88
2023-04-17T16:34:05.884Z,3.80
2023-04-17T16:36:33.445Z,3.35
2023-04-17T16:39:02.473Z,3.50
2023-04-17T16:41:31.031Z,3.22
2023-04-17T16:43:58.547Z,3.17
2023-04-17T16:46:35.513Z,3.30
2023-04-17T16:49:14.245Z,3.40
2023-04-17T16:51:42.364Z,3.10
2023-04-17T16:54:09.521Z,3.28
2023-04-17T16:56:36.884Z,2.88
2023-04-17T16:59:04.892Z,3.70
2023-04-17T17:01:32.842Z,3.45
2023-04-17T17:04:00.036Z,3.25
2023-04-17T17:06:27.269Z,3.15
2023-04-17T17:08:55.242Z,3.00
2023-04-17T17:11:23.551Z,3.30
2023-04-17T17:13:51.819Z,3.20
2023-04-17T17:16:20.992Z,5.00
2023-04-17T17:18:48.827Z,4.70
2023-04-17T17:21:16.162Z,2.90
2023-04-17T17:23:43.356Z,2.83
2023-04-17T17:26:10.301Z,3.40
2023-04-17T17:28:37.671Z,3.03
2023-04-17T17:31:08.716Z,3.28
2023-04-17T17:33:36.815Z,3.30
2023-04-17T17:36:04.185Z,4.35
2023-04-17T17:38:32.778Z,3.83
2023-04-17T17:40:59.939Z,3.90
2023-04-17T17:43:29.993Z,4.45
2023-04-17T17:45:56.962Z,4.47
2023-04-17T17:48:23.980Z,4.60
2023-04-17T17:50:54.465Z,4.82
2023-04-17T17:53:26.178Z,5.47
2023-04-17T17:55:55.034Z,5.72
2023-04-17T17:58:22.360Z,5.60
2023-04-17T18:00:50.617Z,5.75
2023-04-17T18:03:18.191Z,6.97
2023-04-17T18:05:49.064Z,7.05
2023-04-17T18:08:17.334Z,6.18
2023-04-17T18:10:44.309Z,8.43
2023-04-17T18:13:11.321Z,10.30
2023-04-17T18:15:38.332Z,8.90
2023-04-17T18:18:05.379Z,10.95
2023-04-17T18:20:32.335Z,7.18
2023-04-17T18:22:59.337Z,9.05
2023-04-17T18:25:26.378Z,10.02
2023-04-17T18:27:53.710Z,10.15
2023-04-17T18:30:27.955Z,10.23
2023-04-17T18:32:55.003Z,11.88
2023-04-17T18:35:22.075Z,11.48
2023-04-17T18:37:49.044Z,11.40
2023-04-17T18:40:16.025Z,11.90
2023-04-17T18:42:42.997Z,13.15
2023-04-17T18:45:10.590Z,11.00
2023-04-17T18:47:37.741Z,13.07
2023-04-17T18:50:05.378Z,13.23
2023-04-17T18:52:36.976Z,12.45
2023-04-17T18:55:04.162Z,13.25
2023-04-17T18:57:31.313Z,13.13
2023-04-17T18:59:58.278Z,14.15
2023-04-17T19:02:25.453Z,13.52
2023-04-17T19:04:55.700Z,15.18
2023-04-17T19:07:23.744Z,13.65
2023-04-17T19:09:51.076Z,14.52
2023-04-17T19:12:18.624Z,13.85
2023-04-17T19:14:46.006Z,14.82
2023-04-17T19:17:13.433Z,15.20
2023-04-17T19:19:40.865Z,15.02
2023-04-17T19:22:08.406Z,15.63
2023-04-17T19:24:35.990Z,15.55
2023-04-17T19:27:03.396Z,17.02
2023-04-17T19:29:30.748Z,16.83
2023-04-17T19:31:58.226Z,16.23
2023-04-17T19:34:25.658Z,18.85
2023-04-17T19:36:53.108Z,17.83
2023-04-17T19:39:20.786Z,21.52
2023-04-17T19:41:52.266Z,21.92
2023-04-17T19:44:19.657Z,19.35
2023-04-17T19:46:47.175Z,18.10
2023-04-17T19:49:15.842Z,17.73
2023-04-17T19:51:43.255Z,18.58
2023-04-17T19:54:12.317Z,18.75
2023-04-17T19:56:39.643Z,18.88
2023-04-17T19:59:07.054Z,19.85
2023-04-17T20:01:35.490Z,17.83
2023-04-17T20:04:02.813Z,19.00
2023-04-17T20:06:29.842Z,19.02
2023-04-17T20:08:58.530Z,18.45
2023-04-17T20:11:26.093Z,18.25
2023-04-17T20:13:53.155Z,19.02
2023-04-17T20:16:20.241Z,19.90
2023-04-17T20:18:47.205Z,18.52
2023-04-17T20:21:14.118Z,18.15
2023-04-17T20:23:41.460Z,18.92
2023-04-17T20:26:08.447Z,18.42
2023-04-17T20:28:35.546Z,18.40
2023-04-17T20:31:03.584Z,17.90
2023-04-17T20:33:30.986Z,19.10
2023-04-17T20:35:58.038Z,19.35
2023-04-17T20:38:25.749Z,18.00
2023-04-17T20:40:52.751Z,17.45
2023-04-17T20:43:20.301Z,18.20
2023-04-17T20:45:49.586Z,16.55
2023-04-17T20:48:17.159Z,16.92
2023-04-17T20:50:44.266Z,17.67
2023-04-17T20:53:11.274Z,16.70
2023-04-17T20:55:38.826Z,16.63
2023-04-17T20:58:06.268Z,16.27
2023-04-17T21:00:34.691Z,17.05
2023-04-17T21:03:02.109Z,17.40
2023-04-17T21:05:29.275Z,16.60
2023-04-17T21:07:57.837Z,17.42
2023-04-17T21:10:24.861Z,16.85
2023-04-17T21:12:53.968Z,17.40
2023-04-17T21:15:21.100Z,16.52
2023-04-17T21:17:48.223Z,16.17
2023-04-17T21:20:15.408Z,16.55
2023-04-17T21:22:42.378Z,17.00
2023-04-17T21:25:09.730Z,15.82
2023-04-17T21:27:36.866Z,16.38
2023-04-17T21:30:04.521Z,15.43
2023-04-17T21:32:31.705Z,16.25
2023-04-17T21:34:58.821Z,15.48
2023-04-17T21:37:25.765Z,17.27
2023-04-17T21:39:52.765Z,15.93
2023-04-17T21:42:19.754Z,16.67
2023-04-17T21:44:46.700Z,17.08
2023-04-17T21:47:14.937Z,15.88
2023-04-17T21:49:42.185Z,16.45
2023-04-17T21:52:09.172Z,16.25
2023-04-17T21:54:36.189Z,16.50
2023-04-17T21:57:03.769Z,16.02
2023-04-17T21:59:30.888Z,17.20
2023-04-17T22:01:57.965Z,16.05
2023-04-17T22:05:16.316Z,16.17
2023-04-17T22:07:53.841Z,17.40
2023-04-17T22:10:21.699Z,15.60
2023-04-17T22:12:48.700Z,17.08
2023-04-17T22:15:15.720Z,17.08
2023-04-17T22:17:42.710Z,15.63
2023-04-17T22:20:10.208Z,15.75
2023-04-17T22:22:37.181Z,16.27
2023-04-17T22:25:04.486Z,15.70
2023-04-17T22:27:31.488Z,14.90
2023-04-17T22:29:58.447Z,15.70
2023-04-17T22:32:25.448Z,15.50
2023-04-17T22:34:52.478Z,14.82
2023-04-17T22:37:19.501Z,15.68
2023-04-17T22:39:46.422Z,16.63
2023-04-17T22:42:13.340Z,15.85
2023-04-17T22:44:40.350Z,15.63
2023-04-17T22:47:07.405Z,15.23
2023-04-17T22:49:38.098Z,16.90
2023-04-17T22:52:06.293Z,15.63
2023-04-17T22:54:36.683Z,17.00
2023-04-17T22:57:03.662Z,16.80
2023-04-17T22:59:30.635Z,15.25
2023-04-17T23:01:57.717Z,16.13
2023-04-17T23:04:24.801Z,16.10
2023-04-17T23:06:51.807Z,15.25
2023-04-17T23:09:18.744Z,15.27
2023-04-17T23:11:45.688Z,15.18
2023-04-17T23:14:12.798Z,16.48
2023-04-17T23:16:39.949Z,15.15
2023-04-17T23:19:06.897Z,14.82
2023-04-17T23:21:33.895Z,14.63
2023-04-17T23:24:00.834Z,15.38
2023-04-17T23:26:27.778Z,14.52
2023-04-17T23:28:54.794Z,14.38
2023-04-17T23:31:21.858Z,14.25
2023-04-17T23:33:48.812Z,12.45
2023-04-17T23:36:15.803Z,13.80
2023-04-17T23:38:42.734Z,12.82
2023-04-17T23:41:09.833Z,13.20
2023-04-17T23:43:36.938Z,12.15
2023-04-17T23:46:03.872Z,12.00
2023-04-17T23:48:30.841Z,13.32
2023-04-17T23:50:57.821Z,12.35
2023-04-17T23:53:24.777Z,12.20
2023-04-17T23:55:51.921Z,11.48
2023-04-17T23:58:18.891Z,11.88
